createdAt,value
2023-05-25T00:00:10.552Z,9.30
2023-05-25T00:02:37.593Z,3.42
2023-05-25T00:05:04.293Z,6.82
2023-05-25T00:07:30.667Z,3.70
2023-05-25T00:09:57.103Z,5.65
2023-05-25T00:12:23.472Z,4.35
2023-05-25T00:14:49.863Z,11.55
2023-05-25T00:17:18.672Z,12.60
2023-05-25T00:19:45.272Z,10.02
2023-05-25T00:22:11.945Z,4.90
2023-05-25T00:24:39.413Z,10.23
2023-05-25T00:27:07.216Z,9.00
2023-05-25T00:29:34.152Z,7.68
2023-05-25T00:32:00.756Z,10.13
2023-05-25T00:34:27.177Z,8.05
2023-05-25T00:36:54.017Z,6.07
2023-05-25T00:39:21.014Z,5.55
2023-05-25T00:41:47.956Z,10.23
2023-05-25T00:44:15.212Z,7.28
2023-05-25T00:46:47.120Z,8.75
2023-05-25T00:49:14.800Z,8.05
2023-05-25T00:51:41.430Z,11.52
2023-05-25T00:57:34.175Z,7.85
2023-05-25T01:00:01.251Z,7.18
2023-05-25T01:02:29.206Z,11.80
2023-05-25T01:04:59.668Z,9.93
2023-05-25T01:07:27.025Z,10.43
2023-05-25T01:10:01.586Z,10.18
2023-05-25T01:12:29.620Z,7.20
2023-05-25T01:14:56.753Z,11.55
2023-05-25T01:17:23.327Z,4.93
2023-05-25T01:19:58.112Z,12.77
2023-05-25T01:22:54.091Z,12.23
2023-05-25T01:25:23.168Z,9.60
2023-05-25T01:28:00.239Z,6.50
2023-05-25T01:30:28.300Z,12.95
2023-05-25T01:32:55.278Z,9.05
2023-05-25T01:35:22.418Z,10.13
2023-05-25T01:37:49.423Z,7.93
2023-05-25T01:40:16.184Z,6.78
2023-05-25T01:42:42.624Z,10.10
2023-05-25T01:45:09.568Z,7.75
2023-05-25T01:47:48.290Z,5.55
2023-05-25T01:50:18.770Z,5.68
2023-05-25T01:52:55.456Z,12.13
2023-05-25T01:55:22.488Z,5.22
2023-05-25T01:57:53.429Z,6.60
2023-05-25T02:00:21.325Z,8.68
2023-05-25T02:02:48.150Z,6.28
2023-05-25T02:05:14.690Z,5.22
2023-05-25T02:07:41.438Z,10.13
2023-05-25T02:10:08.063Z,9.52
2023-05-25T02:12:34.525Z,5.07
2023-05-25T02:15:00.952Z,7.53
2023-05-25T02:17:28.048Z,5.75
2023-05-25T02:19:54.672Z,4.50
2023-05-25T02:22:21.395Z,5.85
2023-05-25T02:24:48.040Z,6.88
2023-05-25T02:27:14.807Z,5.47
2023-05-25T02:29:41.536Z,7.43
2023-05-25T02:32:07.925Z,3.22
2023-05-25T02:34:34.270Z,9.38
2023-05-25T02:37:01.500Z,2.88
2023-05-25T02:39:28.533Z,5.40
2023-05-25T02:41:54.904Z,3.00
2023-05-25T02:44:21.846Z,4.53
2023-05-25T02:46:48.306Z,3.58
2023-05-25T02:49:14.710Z,7.07
2023-05-25T02:51:41.106Z,4.25
2023-05-25T02:54:07.473Z,7.50
2023-05-25T02:56:33.870Z,7.00
2023-05-25T02:59:00.291Z,6.50
2023-05-25T03:01:30.880Z,5.05
2023-05-25T03:03:57.544Z,5.65
2023-05-25T03:06:26.183Z,7.18
2023-05-25T03:08:52.789Z,4.38
2023-05-25T03:11:19.183Z,7.95
2023-05-25T03:13:45.634Z,8.98
2023-05-25T03:16:12.749Z,6.50
2023-05-25T03:18:39.218Z,5.30
2023-05-25T03:21:05.883Z,4.25
2023-05-25T03:23:32.272Z,10.18
2023-05-25T03:25:58.776Z,3.90
2023-05-25T03:28:25.154Z,2.97
2023-05-25T03:30:51.610Z,4.60
2023-05-25T03:33:18.000Z,5.95
2023-05-25T03:35:44.579Z,4.30
2023-05-25T03:38:11.221Z,4.45
2023-05-25T03:40:37.619Z,5.68
2023-05-25T03:43:04.039Z,3.92
2023-05-25T03:45:30.614Z,4.65
2023-05-25T03:47:57.111Z,5.50
2023-05-25T03:50:23.574Z,5.65
2023-05-25T03:52:50.048Z,9.77
2023-05-25T03:55:16.455Z,4.95
2023-05-25T03:57:42.856Z,5.72
2023-05-25T04:00:12.355Z,9.98
2023-05-25T04:02:38.920Z,7.95
2023-05-25T04:05:05.617Z,11.75
2023-05-25T04:07:32.020Z,12.57
2023-05-25T04:09:59.736Z,8.23
2023-05-25T04:12:26.953Z,7.15
2023-05-25T04:14:53.387Z,8.20
2023-05-25T04:17:22.329Z,9.57
2023-05-25T04:19:48.830Z,4.32
2023-05-25T04:22:15.377Z,6.75
2023-05-25T04:24:41.736Z,6.30
2023-05-25T04:27:08.191Z,4.05
2023-05-25T04:29:34.564Z,8.80
2023-05-25T04:32:01.041Z,6.88
2023-05-25T04:34:27.640Z,13.55
2023-05-25T04:36:55.105Z,7.10
2023-05-25T04:39:21.464Z,9.35
2023-05-25T04:41:48.366Z,3.90
2023-05-25T04:44:14.758Z,6.38
2023-05-25T04:46:41.158Z,6.90
2023-05-25T04:49:10.439Z,10.00
2023-05-25T04:51:37.448Z,10.88
2023-05-25T04:54:03.921Z,5.75
2023-05-25T04:56:30.371Z,12.45
2023-05-25T04:58:56.746Z,7.10
2023-05-25T05:01:24.167Z,9.57
2023-05-25T05:03:50.713Z,7.03
2023-05-25T05:06:17.863Z,12.23
2023-05-25T05:08:44.252Z,9.55
2023-05-25T05:11:10.735Z,9.10
2023-05-25T05:13:37.083Z,7.53
2023-05-25T05:16:03.494Z,10.63
2023-05-25T05:18:29.945Z,9.70
2023-05-25T05:20:56.321Z,8.82
2023-05-25T05:23:22.699Z,12.52
2023-05-25T05:25:49.064Z,5.15
2023-05-25T05:28:15.472Z,7.40
2023-05-25T05:30:41.884Z,8.57
2023-05-25T05:33:08.325Z,11.35
2023-05-25T05:35:34.789Z,10.63
2023-05-25T05:38:01.285Z,9.85
2023-05-25T05:40:27.796Z,9.63
2023-05-25T05:42:54.254Z,11.32
2023-05-25T05:45:21.351Z,8.60
2023-05-25T05:47:47.762Z,7.10
2023-05-25T05:50:14.225Z,6.82
2023-05-25T05:52:40.729Z,3.47
2023-05-25T05:55:07.741Z,9.80
2023-05-25T05:57:34.122Z,9.00
2023-05-25T06:00:00.865Z,7.15
2023-05-25T06:02:27.407Z,6.20
2023-05-25T06:04:53.793Z,13.50
2023-05-25T06:07:20.987Z,11.38
2023-05-25T06:09:47.434Z,12.70
2023-05-25T06:12:13.846Z,9.10
2023-05-25T06:14:40.297Z,12.55
2023-05-25T06:17:06.891Z,9.13
2023-05-25T06:19:33.418Z,10.70
2023-05-25T06:21:59.858Z,12.38
2023-05-25T06:24:26.325Z,12.48
2023-05-25T06:26:52.787Z,11.95
2023-05-25T06:29:19.181Z,8.85
2023-05-25T06:31:45.945Z,8.23
2023-05-25T06:34:12.457Z,7.30
2023-05-25T06:36:39.400Z,7.22
2023-05-25T06:39:05.837Z,14.90
2023-05-25T06:41:32.358Z,9.05
2023-05-25T06:43:58.771Z,12.80
2023-05-25T06:46:25.347Z,9.13
2023-05-25T06:48:51.819Z,7.60
2023-05-25T06:51:18.539Z,8.63
2023-05-25T06:53:45.003Z,7.50
2023-05-25T06:56:11.425Z,6.60
2023-05-25T06:58:37.977Z,10.73
2023-05-25T07:01:04.493Z,10.98
2023-05-25T07:03:32.568Z,9.13
2023-05-25T07:05:58.945Z,11.02
2023-05-25T07:08:25.392Z,12.57
2023-05-25T07:10:51.778Z,8.77
2023-05-25T07:13:18.248Z,6.85
2023-05-25T07:15:44.933Z,7.38
2023-05-25T07:18:12.603Z,7.15
2023-05-25T07:20:42.077Z,6.90
2023-05-25T07:23:09.967Z,8.77
2023-05-25T07:25:36.480Z,10.10
2023-05-25T07:28:03.132Z,6.80
2023-05-25T07:30:30.228Z,9.40
2023-05-25T07:32:58.059Z,6.97
2023-05-25T07:35:25.169Z,8.55
2023-05-25T07:37:57.962Z,7.55
2023-05-25T07:40:24.349Z,8.07
2023-05-25T07:42:50.731Z,8.85
2023-05-25T07:45:17.202Z,9.15
2023-05-25T07:47:43.711Z,7.30
2023-05-25T07:50:10.536Z,10.75
2023-05-25T07:52:38.398Z,7.38
2023-05-25T07:55:08.152Z,7.90
2023-05-25T07:57:34.867Z,7.10
2023-05-25T08:00:01.792Z,8.35
2023-05-25T08:02:28.367Z,6.30
2023-05-25T08:04:54.935Z,8.82
2023-05-25T08:07:21.583Z,6.32
2023-05-25T08:09:47.984Z,6.95
2023-05-25T08:12:34.325Z,8.35
2023-05-25T08:15:00.804Z,6.97
2023-05-25T08:17:27.285Z,3.75
2023-05-25T08:19:57.714Z,8.65
2023-05-25T08:22:24.204Z,6.43
2023-05-25T08:24:50.866Z,5.75
2023-05-25T08:27:18.087Z,7.70
2023-05-25T08:29:44.526Z,5.25
2023-05-25T08:32:11.051Z,5.28
2023-05-25T08:34:37.539Z,11.48
2023-05-25T08:37:04.045Z,8.45
2023-05-25T08:39:31.826Z,7.20
2023-05-25T08:41:59.733Z,6.82
2023-05-25T08:44:27.012Z,9.25
2023-05-25T08:46:56.157Z,6.07
2023-05-25T08:49:22.946Z,8.73
2023-05-25T08:51:51.037Z,5.15
2023-05-25T08:54:29.790Z,7.95
2023-05-25T08:57:01.640Z,6.13
2023-05-25T08:59:33.988Z,7.95
2023-05-25T09:02:20.901Z,7.75
2023-05-25T09:04:47.395Z,10.73
2023-05-25T09:07:14.126Z,6.45
2023-05-25T09:09:40.647Z,9.43
2023-05-25T09:12:07.528Z,5.25
2023-05-25T09:14:34.817Z,7.88
2023-05-25T09:17:01.337Z,5.80
2023-05-25T09:19:27.742Z,6.05
2023-05-25T09:22:03.066Z,8.38
2023-05-25T09:24:34.143Z,7.72
2023-05-25T09:27:01.083Z,9.95
2023-05-25T09:29:27.430Z,11.60
2023-05-25T09:31:53.893Z,7.07
2023-05-25T09:34:20.543Z,7.32
2023-05-25T09:36:47.062Z,8.45
2023-05-25T09:39:17.135Z,7.97
2023-05-25T09:41:43.777Z,6.80
2023-05-25T09:44:11.698Z,5.35
2023-05-25T09:46:39.167Z,6.93
2023-05-25T09:49:08.431Z,6.00
2023-05-25T09:51:35.376Z,6.15
2023-05-25T09:54:02.046Z,4.57
2023-05-25T09:56:31.059Z,4.22
2023-05-25T09:58:57.649Z,4.43
2023-05-25T10:01:24.340Z,5.40
2023-05-25T10:04:02.763Z,6.40
2023-05-25T10:06:31.826Z,5.38
2023-05-25T10:08:58.297Z,4.50
2023-05-25T10:11:29.224Z,10.30
2023-05-25T10:13:56.660Z,9.38
2023-05-25T10:16:25.430Z,5.28
2023-05-25T10:18:54.637Z,8.07
2023-05-25T10:21:22.684Z,5.32
2023-05-25T10:23:51.819Z,9.25
2023-05-25T10:26:19.927Z,9.55
2023-05-25T10:28:47.791Z,13.98
2023-05-25T10:31:14.770Z,13.38
2023-05-25T10:33:41.434Z,7.53
2023-05-25T10:36:11.209Z,7.88
2023-05-25T10:38:39.274Z,5.70
2023-05-25T10:41:05.962Z,6.47
2023-05-25T10:43:32.412Z,8.90
2023-05-25T10:45:58.819Z,8.85
2023-05-25T10:48:35.057Z,9.25
2023-05-25T10:51:01.436Z,8.35
2023-05-25T10:53:27.936Z,9.40
2023-05-25T10:55:54.294Z,5.97
2023-05-25T10:58:21.687Z,9.23
2023-05-25T11:01:17.759Z,10.70
2023-05-25T11:03:44.492Z,9.63
2023-05-25T11:06:11.675Z,5.50
2023-05-25T11:08:59.044Z,8.80
2023-05-25T11:11:49.546Z,8.50
2023-05-25T11:14:31.463Z,4.35
2023-05-25T11:17:11.663Z,7.95
2023-05-25T11:19:39.020Z,9.93
2023-05-25T11:22:20.576Z,7.80
2023-05-25T11:24:50.703Z,8.52
2023-05-25T11:27:24.039Z,6.70
2023-05-25T11:29:51.372Z,11.82
2023-05-25T11:32:17.801Z,7.18
2023-05-25T11:34:46.993Z,8.38
2023-05-25T11:37:16.154Z,6.35
2023-05-25T11:39:43.862Z,5.20
2023-05-25T11:42:11.440Z,5.88
2023-05-25T11:44:38.996Z,6.55
2023-05-25T11:47:09.833Z,10.48
2023-05-25T11:49:39.949Z,4.05
2023-05-25T11:52:07.264Z,6.55
2023-05-25T11:54:34.121Z,7.57
2023-05-25T11:57:01.454Z,9.15
2023-05-25T11:59:29.846Z,6.80
2023-05-25T12:02:00.078Z,7.28
2023-05-25T12:04:26.917Z,9.32
2023-05-25T12:07:00.982Z,6.50
2023-05-25T12:09:27.370Z,6.72
2023-05-25T12:11:53.882Z,7.07
2023-05-25T12:14:20.871Z,6.68
2023-05-25T12:16:47.331Z,7.88
2023-05-25T12:19:14.047Z,7.82
2023-05-25T12:21:41.034Z,9.75
2023-05-25T12:24:08.203Z,3.17
2023-05-25T12:26:34.708Z,5.18
2023-05-25T12:29:01.232Z,7.85
2023-05-25T12:31:32.881Z,5.22
2023-05-25T12:34:06.394Z,7.47
2023-05-25T12:36:42.175Z,10.18
2023-05-25T12:39:09.816Z,6.75
2023-05-25T12:41:44.076Z,5.30
2023-05-25T12:44:21.331Z,5.70
2023-05-25T12:46:48.665Z,6.85
2023-05-25T12:49:27.206Z,8.35
2023-05-25T12:51:54.083Z,7.90
2023-05-25T12:54:37.084Z,7.50
2023-05-25T12:57:05.738Z,7.25
2023-05-25T12:59:32.942Z,6.43
2023-05-25T13:01:59.449Z,5.85
2023-05-25T13:04:26.626Z,8.48
2023-05-25T13:06:54.065Z,11.02
2023-05-25T13:09:23.386Z,6.68
2023-05-25T13:11:49.740Z,6.38
2023-05-25T13:14:16.196Z,7.35
2023-05-25T13:16:42.679Z,8.68
2023-05-25T13:19:09.193Z,9.85
2023-05-25T13:21:35.851Z,9.27
2023-05-25T13:24:02.218Z,8.65
2023-05-25T13:26:28.669Z,7.75
2023-05-25T13:28:55.021Z,11.20
2023-05-25T13:31:21.448Z,9.60
2023-05-25T13:33:47.861Z,5.30
2023-05-25T13:36:15.411Z,12.98
2023-05-25T13:38:41.895Z,9.05
2023-05-25T13:41:08.622Z,6.30
2023-05-25T13:43:35.040Z,8.43
2023-05-25T13:46:01.655Z,9.40
2023-05-25T13:48:29.826Z,10.93
2023-05-25T13:50:56.254Z,6.38
2023-05-25T13:53:22.643Z,7.88
2023-05-25T13:55:49.038Z,7.05
2023-05-25T13:58:15.434Z,16.05
2023-05-25T14:00:42.123Z,8.00
2023-05-25T14:03:08.890Z,20.80
2023-05-25T14:05:35.405Z,9.05
2023-05-25T14:08:05.007Z,11.02
2023-05-25T14:10:31.609Z,14.35
2023-05-25T14:12:58.062Z,8.80
2023-05-25T14:15:25.407Z,9.05
2023-05-25T14:17:51.853Z,12.95
2023-05-25T14:20:21.140Z,15.32
2023-05-25T14:22:47.643Z,10.93
2023-05-25T14:25:14.170Z,9.10
2023-05-25T14:27:40.675Z,15.35
2023-05-25T14:30:07.415Z,12.80
2023-05-25T14:32:33.828Z,15.10
2023-05-25T14:35:00.323Z,15.90
2023-05-25T14:37:26.694Z,12.35
2023-05-25T14:39:53.114Z,14.63
2023-05-25T14:42:19.484Z,9.82
2023-05-25T14:44:45.909Z,12.65
2023-05-25T14:47:12.543Z,12.18
2023-05-25T14:49:39.074Z,15.52
2023-05-25T14:52:05.669Z,19.17
2023-05-25T14:54:32.091Z,12.65
2023-05-25T14:56:58.485Z,14.90
2023-05-25T14:59:24.874Z,24.08
2023-05-25T15:01:51.292Z,19.90
2023-05-25T15:04:17.962Z,19.70
2023-05-25T15:06:44.572Z,20.35
2023-05-25T15:09:13.235Z,14.38
2023-05-25T15:11:39.652Z,15.15
2023-05-25T15:14:06.084Z,19.67
2023-05-25T15:16:32.517Z,15.93
2023-05-25T15:18:59.025Z,20.15
2023-05-25T15:21:26.594Z,19.38
2023-05-25T15:23:53.073Z,17.33
2023-05-25T15:26:19.489Z,15.63
2023-05-25T15:28:45.906Z,22.13
2023-05-25T15:31:12.521Z,19.00
2023-05-25T15:33:52.057Z,19.83
2023-05-25T15:36:22.986Z,16.85
2023-05-25T15:38:49.648Z,19.77
2023-05-25T15:41:16.884Z,17.85
2023-05-25T15:43:49.853Z,20.00
2023-05-25T15:46:16.383Z,17.17
2023-05-25T15:48:42.758Z,20.23
2023-05-25T15:51:09.132Z,22.15
2023-05-25T15:53:35.634Z,20.27
2023-05-25T15:56:02.552Z,19.80
2023-05-25T15:58:28.907Z,22.08
2023-05-25T16:00:55.290Z,19.80
2023-05-25T16:03:21.739Z,21.23
2023-05-25T16:05:48.185Z,20.25
2023-05-25T16:08:14.714Z,21.90
2023-05-25T16:10:41.150Z,24.00
2023-05-25T16:13:07.664Z,18.73
2023-05-25T16:15:34.045Z,21.33
2023-05-25T16:18:01.318Z,22.08
2023-05-25T16:20:27.807Z,19.25
2023-05-25T16:22:54.265Z,17.35
2023-05-25T16:25:20.990Z,17.27
2023-05-25T16:27:47.390Z,20.17
2023-05-25T16:30:14.194Z,20.73
2023-05-25T16:32:40.690Z,23.50
2023-05-25T16:35:07.314Z,21.33
2023-05-25T16:37:33.765Z,22.42
2023-05-25T16:40:00.404Z,17.23
2023-05-25T16:42:26.756Z,22.60
2023-05-25T16:44:53.238Z,16.92
2023-05-25T16:47:19.711Z,22.40
2023-05-25T16:49:46.116Z,14.68
2023-05-25T16:52:12.521Z,22.40
2023-05-25T16:54:38.925Z,25.75
2023-05-25T16:57:06.953Z,18.65
2023-05-25T16:59:33.358Z,15.13
2023-05-25T17:02:00.402Z,26.13
2023-05-25T17:04:27.080Z,22.13
2023-05-25T17:06:53.442Z,24.48
2023-05-25T17:09:21.091Z,24.45
2023-05-25T17:11:47.515Z,24.60
2023-05-25T17:14:14.121Z,24.98
2023-05-25T17:16:40.627Z,16.90
2023-05-25T17:19:07.116Z,25.98
2023-05-25T17:21:34.865Z,23.55
2023-05-25T17:24:01.274Z,20.55
2023-05-25T17:26:27.727Z,19.23
2023-05-25T17:28:54.905Z,19.85
2023-05-25T17:31:21.315Z,20.70
2023-05-25T17:33:47.742Z,24.08
2023-05-25T17:36:14.164Z,21.05
2023-05-25T17:38:41.166Z,23.67
2023-05-25T17:41:07.688Z,24.52
2023-05-25T17:43:34.072Z,18.90
2023-05-25T17:46:00.609Z,17.17
2023-05-25T17:48:27.320Z,18.77
2023-05-25T17:50:53.715Z,21.65
2023-05-25T17:53:20.098Z,17.25
2023-05-25T17:55:46.664Z,17.05
2023-05-25T17:58:13.182Z,20.02
2023-05-25T18:00:39.538Z,23.73
2023-05-25T18:03:06.306Z,14.80
2023-05-25T18:05:32.806Z,14.48
2023-05-25T18:07:59.161Z,17.80
2023-05-25T18:10:25.590Z,17.52
2023-05-25T18:12:52.403Z,24.85
2023-05-25T18:15:18.998Z,17.05
2023-05-25T18:17:45.493Z,21.77
2023-05-25T18:20:12.015Z,19.90
2023-05-25T18:22:38.487Z,21.10
2023-05-25T18:25:05.236Z,28.35
2023-05-25T18:27:31.648Z,16.83
2023-05-25T18:29:58.974Z,15.82
2023-05-25T18:32:25.489Z,22.52
2023-05-25T18:34:51.918Z,19.40
2023-05-25T18:37:18.359Z,18.55
2023-05-25T18:39:44.702Z,22.50
2023-05-25T18:42:11.183Z,16.77
2023-05-25T18:44:37.672Z,18.10
2023-05-25T18:47:04.336Z,17.10
2023-05-25T18:49:33.637Z,22.35
2023-05-25T18:52:01.472Z,21.33
2023-05-25T18:54:27.916Z,20.23
2023-05-25T18:56:54.254Z,19.27
2023-05-25T18:59:20.679Z,19.52
2023-05-25T19:01:47.244Z,18.90
2023-05-25T19:04:13.693Z,17.92
2023-05-25T19:06:40.107Z,17.45
2023-05-25T19:09:06.537Z,13.13
2023-05-25T19:11:32.942Z,15.07
2023-05-25T19:13:59.792Z,16.35
2023-05-25T19:16:26.238Z,14.10
2023-05-25T19:18:52.774Z,16.77
2023-05-25T19:21:19.166Z,17.08
2023-05-25T19:23:45.727Z,16.50
2023-05-25T19:26:12.231Z,16.58
2023-05-25T19:28:38.644Z,12.57
2023-05-25T19:31:05.135Z,23.35
2023-05-25T19:33:31.578Z,15.20
2023-05-25T19:35:58.163Z,15.98
2023-05-25T19:38:26.613Z,11.45
2023-05-25T19:40:55.376Z,18.52
2023-05-25T19:43:21.812Z,22.25
2023-05-25T19:45:48.496Z,13.90
2023-05-25T19:48:14.988Z,17.00
2023-05-25T19:50:41.929Z,9.75
2023-05-25T19:53:08.334Z,17.13
2023-05-25T19:55:36.688Z,16.27
2023-05-25T19:58:03.121Z,12.20
2023-05-25T20:00:29.611Z,11.25
2023-05-25T20:02:56.617Z,17.67
2023-05-25T20:05:23.261Z,16.58
2023-05-25T20:07:52.149Z,17.45
2023-05-25T20:10:18.931Z,14.82
2023-05-25T20:12:45.397Z,16.58
2023-05-25T20:15:11.918Z,16.85
2023-05-25T20:17:38.340Z,15.85
2023-05-25T20:20:05.267Z,15.05
2023-05-25T20:22:32.805Z,21.25
2023-05-25T20:25:00.786Z,15.52
2023-05-25T20:27:27.833Z,22.48
2023-05-25T20:29:54.890Z,20.17
2023-05-25T20:32:21.389Z,15.68
2023-05-25T20:34:47.837Z,14.05
2023-05-25T20:37:14.196Z,11.52
2023-05-25T20:39:40.700Z,18.40
2023-05-25T20:42:07.317Z,14.40
2023-05-25T20:44:33.709Z,15.73
2023-05-25T20:47:00.107Z,22.42
2023-05-25T20:49:26.496Z,12.98
2023-05-25T20:51:52.952Z,18.85
2023-05-25T20:54:19.341Z,15.55
2023-05-25T20:56:47.479Z,15.27
2023-05-25T20:59:13.970Z,20.48
2023-05-25T21:01:40.458Z,20.10
2023-05-25T21:04:07.044Z,15.57
2023-05-25T21:06:33.580Z,13.07
2023-05-25T21:08:59.959Z,17.50
2023-05-25T21:11:26.741Z,18.80
2023-05-25T21:13:53.168Z,16.77
2023-05-25T21:16:19.578Z,18.63
2023-05-25T21:18:46.042Z,15.75
2023-05-25T21:21:12.455Z,13.32
2023-05-25T21:23:38.863Z,22.98
2023-05-25T21:26:05.259Z,15.23
2023-05-25T21:28:31.663Z,14.57
2023-05-25T21:30:58.029Z,12.15
2023-05-25T21:33:24.499Z,22.63
2023-05-25T21:35:50.865Z,13.50
2023-05-25T21:38:18.337Z,15.98
2023-05-25T21:40:44.705Z,14.98
2023-05-25T21:43:11.162Z,13.82
2023-05-25T21:45:37.587Z,15.88
2023-05-25T21:48:04.676Z,12.05
2023-05-25T21:50:31.203Z,15.13
2023-05-25T21:52:57.707Z,12.30
2023-05-25T21:55:24.270Z,15.82
2023-05-25T21:57:50.713Z,18.70
2023-05-25T22:00:18.305Z,13.77
2023-05-25T22:02:44.808Z,21.02
2023-05-25T22:05:11.343Z,15.93
2023-05-25T22:07:37.724Z,14.10
2023-05-25T22:10:04.221Z,11.35
2023-05-25T22:12:30.612Z,14.10
2023-05-25T22:14:57.016Z,13.77
2023-05-25T22:17:23.431Z,18.65
2023-05-25T22:20:03.313Z,14.82
2023-05-25T22:22:34.082Z,19.38
2023-05-25T22:25:00.609Z,20.85
2023-05-25T22:27:27.041Z,14.88
2023-05-25T22:29:53.501Z,20.30
2023-05-25T22:32:19.910Z,17.50
2023-05-25T22:34:47.213Z,18.70
2023-05-25T22:37:14.034Z,13.40
2023-05-25T22:39:40.444Z,16.15
2023-05-25T22:42:06.915Z,15.90
2023-05-25T22:44:34.957Z,21.95
2023-05-25T22:47:01.328Z,15.02
2023-05-25T22:49:27.757Z,12.55
2023-05-25T22:51:54.263Z,17.83
2023-05-25T22:54:20.619Z,12.57
2023-05-25T22:56:47.014Z,13.80
2023-05-25T22:59:13.377Z,17.23
2023-05-25T23:01:39.821Z,12.93
2023-05-25T23:04:06.463Z,17.27
2023-05-25T23:06:33.031Z,14.15
2023-05-25T23:08:59.417Z,14.25
2023-05-25T23:11:27.068Z,7.50
2023-05-25T23:13:54.734Z,13.32
2023-05-25T23:16:21.248Z,14.60
2023-05-25T23:18:47.658Z,13.00
2023-05-25T23:21:13.989Z,25.45
2023-05-25T23:23:40.518Z,17.75
2023-05-25T23:26:06.932Z,18.30
2023-05-25T23:28:33.427Z,11.40
2023-05-25T23:30:59.812Z,18.75
2023-05-25T23:33:26.268Z,13.02
2023-05-25T23:35:52.617Z,12.10
2023-05-25T23:38:18.997Z,15.57
2023-05-25T23:40:45.484Z,16.08
2023-05-25T23:43:12.820Z,13.73
2023-05-25T23:45:39.242Z,16.20
2023-05-25T23:48:05.793Z,9.23
2023-05-25T23:50:32.313Z,14.57
2023-05-25T23:52:58.736Z,16.02
2023-05-25T23:55:25.088Z,16.98
2023-05-25T23:57:51.497Z,11.57
